Terminal Aerodrome Forecast
Issued by NWS Billings, MT

Home | Current Version | Previous Version | Text Only | Print | Product List | Glossary On
Versions: 1 2 3 4 5 6 7 8 9 10 11 12 13 14 15 16 17 18 19 20 21 22 23 24 25 26 27 28 29 30 31 32 33 34
000
FTUS45 KBYZ 082325
TAFBIL
TAF
KBIL 082325Z 0900/0924 VRB06KT P6SM FEW060
     FM090300 08008KT P6SM BKN050
     FM090800 04007KT P6SM VCSH SCT010 BKN035
     FM091400 08007KT 6SM -SN SCT008 OVC030
     FM091700 10007KT P6SM VCSH SCT010 BKN035=

USA.gov is the U.S. government's official web portal to all federal, state and local government web resources and services.